sensor_id;sensor_type;location;lat;lon;timestamp;P1;durP1;ratioP1;P2;durP2;ratioP2
69369;SDS011;56530;42.640;23.372;2024-02-26T00:01:01;8.02;;;7.32;;
69369;SDS011;56530;42.640;23.372;2024-02-26T00:03:27;9.05;;;8.02;;
69369;SDS011;56530;42.640;23.372;2024-02-26T00:05:52;11.77;;;7.70;;
69369;SDS011;56530;42.640;23.372;2024-02-26T00:08:17;8.05;;;7.28;;
69369;SDS011;56530;42.640;23.372;2024-02-26T00:10:43;9.95;;;7.72;;
69369;SDS011;56530;42.640;23.372;2024-02-26T00:13:08;8.63;;;7.70;;
69369;SDS011;56530;42.640;23.372;2024-02-26T00:15:34;10.85;;;7.68;;
69369;SDS011;56530;42.640;23.372;2024-02-26T00:18:00;9.40;;;7.65;;
69369;SDS011;56530;42.640;23.372;2024-02-26T00:20:26;8.40;;;7.43;;
69369;SDS011;56530;42.640;23.372;2024-02-26T00:22:51;8.73;;;7.85;;
69369;SDS011;56530;42.640;23.372;2024-02-26T00:25:17;10.13;;;8.18;;
69369;SDS011;56530;42.640;23.372;2024-02-26T00:27:42;12.82;;;8.05;;
69369;SDS011;56530;42.640;23.372;2024-02-26T00:30:09;9.20;;;8.30;;
69369;SDS011;56530;42.640;23.372;2024-02-26T00:32:36;10.95;;;8.32;;
69369;SDS011;56530;42.640;23.372;2024-02-26T00:35:01;11.50;;;8.88;;
69369;SDS011;56530;42.640;23.372;2024-02-26T00:37:28;10.13;;;8.00;;
69369;SDS011;56530;42.640;23.372;2024-02-26T00:39:54;14.13;;;8.15;;
69369;SDS011;56530;42.640;23.372;2024-02-26T00:42:19;10.43;;;7.95;;
69369;SDS011;56530;42.640;23.372;2024-02-26T00:44:45;13.40;;;9.23;;
69369;SDS011;56530;42.640;23.372;2024-02-26T00:47:10;8.73;;;7.93;;
69369;SDS011;56530;42.640;23.372;2024-02-26T00:49:36;9.38;;;7.38;;
69369;SDS011;56530;42.640;23.372;2024-02-26T00:52:02;9.27;;;8.25;;
69369;SDS011;56530;42.640;23.372;2024-02-26T00:54:27;11.65;;;7.78;;
69369;SDS011;56530;42.640;23.372;2024-02-26T00:56:53;9.48;;;7.78;;
69369;SDS011;56530;42.640;23.372;2024-02-26T00:59:18;10.02;;;8.70;;
69369;SDS011;56530;42.640;23.372;2024-02-26T01:01:43;13.80;;;10.50;;
69369;SDS011;56530;42.640;23.372;2024-02-26T01:04:09;10.95;;;9.85;;
69369;SDS011;56530;42.640;23.372;2024-02-26T01:06:34;11.85;;;10.40;;
69369;SDS011;56530;42.640;23.372;2024-02-26T01:08:59;13.05;;;10.00;;
69369;SDS011;56530;42.640;23.372;2024-02-26T01:11:25;13.73;;;12.23;;
69369;SDS011;56530;42.640;23.372;2024-02-26T01:13:51;12.52;;;10.68;;
69369;SDS011;56530;42.640;23.372;2024-02-26T01:16:21;13.27;;;11.30;;
69369;SDS011;56530;42.640;23.372;2024-02-26T01:18:47;17.10;;;12.55;;
69369;SDS011;56530;42.640;23.372;2024-02-26T01:21:12;15.82;;;11.98;;
69369;SDS011;56530;42.640;23.372;2024-02-26T01:23:38;15.85;;;11.88;;
69369;SDS011;56530;42.640;23.372;2024-02-26T01:26:03;12.65;;;11.45;;
69369;SDS011;56530;42.640;23.372;2024-02-26T01:28:29;11.73;;;10.52;;
69369;SDS011;56530;42.640;23.372;2024-02-26T01:30:55;13.35;;;11.00;;
69369;SDS011;56530;42.640;23.372;2024-02-26T01:33:20;12.20;;;11.02;;
69369;SDS011;56530;42.640;23.372;2024-02-26T01:35:45;13.30;;;9.63;;
69369;SDS011;56530;42.640;23.372;2024-02-26T01:38:11;13.27;;;11.00;;
69369;SDS011;56530;42.640;23.372;2024-02-26T01:40:37;12.85;;;10.55;;
69369;SDS011;56530;42.640;23.372;2024-02-26T01:43:02;13.52;;;10.93;;
69369;SDS011;56530;42.640;23.372;2024-02-26T01:45:28;11.70;;;9.48;;
69369;SDS011;56530;42.640;23.372;2024-02-26T01:47:53;13.98;;;10.73;;
69369;SDS011;56530;42.640;23.372;2024-02-26T01:50:19;10.77;;;9.68;;
69369;SDS011;56530;42.640;23.372;2024-02-26T01:52:45;11.15;;;10.00;;
69369;SDS011;56530;42.640;23.372;2024-02-26T01:55:12;11.98;;;10.68;;
69369;SDS011;56530;42.640;23.372;2024-02-26T01:57:39;10.57;;;9.68;;
69369;SDS011;56530;42.640;23.372;2024-02-26T02:00:05;14.18;;;10.70;;
69369;SDS011;56530;42.640;23.372;2024-02-26T02:02:32;12.00;;;9.77;;
69369;SDS011;56530;42.640;23.372;2024-02-26T02:04:58;11.88;;;10.15;;
69369;SDS011;56530;42.640;23.372;2024-02-26T02:07:23;14.05;;;10.65;;
69369;SDS011;56530;42.640;23.372;2024-02-26T02:09:49;11.55;;;9.80;;
69369;SDS011;56530;42.640;23.372;2024-02-26T02:12:15;11.85;;;10.65;;
69369;SDS011;56530;42.640;23.372;2024-02-26T02:14:40;10.90;;;9.82;;
69369;SDS011;56530;42.640;23.372;2024-02-26T02:17:06;11.15;;;10.07;;
69369;SDS011;56530;42.640;23.372;2024-02-26T02:19:32;14.27;;;11.35;;
69369;SDS011;56530;42.640;23.372;2024-02-26T02:21:57;12.85;;;11.55;;
69369;SDS011;56530;42.640;23.372;2024-02-26T02:24:23;13.70;;;11.65;;
69369;SDS011;56530;42.640;23.372;2024-02-26T02:26:48;15.70;;;11.82;;
69369;SDS011;56530;42.640;23.372;2024-02-26T02:29:13;14.80;;;12.13;;
69369;SDS011;56530;42.640;23.372;2024-02-26T02:31:39;14.00;;;11.88;;
69369;SDS011;56530;42.640;23.372;2024-02-26T02:34:05;14.05;;;12.60;;
69369;SDS011;56530;42.640;23.372;2024-02-26T02:36:30;13.65;;;12.18;;
69369;SDS011;56530;42.640;23.372;2024-02-26T02:38:55;16.95;;;13.60;;
69369;SDS011;56530;42.640;23.372;2024-02-26T02:41:21;18.05;;;12.73;;
69369;SDS011;56530;42.640;23.372;2024-02-26T02:43:46;15.35;;;11.40;;
69369;SDS011;56530;42.640;23.372;2024-02-26T02:46:12;13.63;;;11.90;;
69369;SDS011;56530;42.640;23.372;2024-02-26T02:48:37;12.98;;;11.07;;
69369;SDS011;56530;42.640;23.372;2024-02-26T02:51:03;15.38;;;12.30;;
69369;SDS011;56530;42.640;23.372;2024-02-26T02:53:29;14.63;;;10.80;;
69369;SDS011;56530;42.640;23.372;2024-02-26T02:55:54;12.20;;;10.25;;
69369;SDS011;56530;42.640;23.372;2024-02-26T02:58:20;11.98;;;10.77;;
69369;SDS011;56530;42.640;23.372;2024-02-26T03:00:45;15.00;;;10.77;;
69369;SDS011;56530;42.640;23.372;2024-02-26T03:03:10;13.05;;;10.60;;
69369;SDS011;56530;42.640;23.372;2024-02-26T03:05:36;12.07;;;10.30;;
69369;SDS011;56530;42.640;23.372;2024-02-26T03:08:01;14.98;;;11.27;;
69369;SDS011;56530;42.640;23.372;2024-02-26T03:10:26;14.43;;;11.40;;
69369;SDS011;56530;42.640;23.372;2024-02-26T03:12:53;12.40;;;11.00;;
69369;SDS011;56530;42.640;23.372;2024-02-26T03:15:19;12.43;;;10.25;;
69369;SDS011;56530;42.640;23.372;2024-02-26T03:17:44;13.02;;;11.07;;
69369;SDS011;56530;42.640;23.372;2024-02-26T03:20:09;13.43;;;10.60;;
69369;SDS011;56530;42.640;23.372;2024-02-26T03:22:35;12.60;;;10.80;;
69369;SDS011;56530;42.640;23.372;2024-02-26T03:25:01;11.98;;;10.77;;
69369;SDS011;56530;42.640;23.372;2024-02-26T03:27:26;13.20;;;11.85;;
69369;SDS011;56530;42.640;23.372;2024-02-26T03:29:52;14.18;;;11.73;;
69369;SDS011;56530;42.640;23.372;2024-02-26T03:32:18;11.52;;;10.43;;
69369;SDS011;56530;42.640;23.372;2024-02-26T03:34:43;15.23;;;11.55;;
69369;SDS011;56530;42.640;23.372;2024-02-26T03:37:08;11.95;;;10.40;;
69369;SDS011;56530;42.640;23.372;2024-02-26T03:39:35;18.08;;;11.65;;
69369;SDS011;56530;42.640;23.372;2024-02-26T03:42:01;15.63;;;12.55;;
69369;SDS011;56530;42.640;23.372;2024-02-26T03:44:27;12.43;;;11.13;;
69369;SDS011;56530;42.640;23.372;2024-02-26T03:46:52;11.23;;;10.05;;
69369;SDS011;56530;42.640;23.372;2024-02-26T03:49:18;12.82;;;11.05;;
69369;SDS011;56530;42.640;23.372;2024-02-26T03:51:43;13.23;;;10.90;;
69369;SDS011;56530;42.640;23.372;2024-02-26T03:54:08;14.05;;;11.70;;
69369;SDS011;56530;42.640;23.372;2024-02-26T03:56:34;15.52;;;12.00;;
69369;SDS011;56530;42.640;23.372;2024-02-26T03:58:59;13.88;;;12.40;;
69369;SDS011;56530;42.640;23.372;2024-02-26T04:01:26;18.85;;;12.63;;
69369;SDS011;56530;42.640;23.372;2024-02-26T04:03:52;16.73;;;13.55;;
69369;SDS011;56530;42.640;23.372;2024-02-26T04:06:17;15.98;;;11.95;;
69369;SDS011;56530;42.640;23.372;2024-02-26T04:08:46;14.40;;;12.43;;
69369;SDS011;56530;42.640;23.372;2024-02-26T04:11:12;14.68;;;11.50;;
69369;SDS011;56530;42.640;23.372;2024-02-26T04:13:38;11.55;;;10.40;;
69369;SDS011;56530;42.640;23.372;2024-02-26T04:16:04;13.27;;;9.88;;
69369;SDS011;56530;42.640;23.372;2024-02-26T04:18:32;12.45;;;10.02;;
69369;SDS011;56530;42.640;23.372;2024-02-26T04:20:58;11.45;;;10.13;;
69369;SDS011;56530;42.640;23.372;2024-02-26T04:23:24;11.52;;;10.07;;
69369;SDS011;56530;42.640;23.372;2024-02-26T04:25:49;14.05;;;10.50;;
69369;SDS011;56530;42.640;23.372;2024-02-26T04:28:15;9.60;;;8.70;;
69369;SDS011;56530;42.640;23.372;2024-02-26T04:30:40;11.18;;;9.50;;
69369;SDS011;56530;42.640;23.372;2024-02-26T04:33:06;10.02;;;8.80;;
69369;SDS011;56530;42.640;23.372;2024-02-26T04:35:31;11.20;;;9.70;;
69369;SDS011;56530;42.640;23.372;2024-02-26T04:37:57;9.68;;;8.75;;
69369;SDS011;56530;42.640;23.372;2024-02-26T04:40:22;10.40;;;8.80;;
69369;SDS011;56530;42.640;23.372;2024-02-26T04:42:48;11.07;;;9.88;;
69369;SDS011;56530;42.640;23.372;2024-02-26T04:45:14;10.52;;;9.35;;
69369;SDS011;56530;42.640;23.372;2024-02-26T04:47:39;15.40;;;10.52;;
69369;SDS011;56530;42.640;23.372;2024-02-26T04:50:05;11.30;;;10.10;;
69369;SDS011;56530;42.640;23.372;2024-02-26T04:52:31;11.10;;;10.00;;
69369;SDS011;56530;42.640;23.372;2024-02-26T04:54:56;11.18;;;9.77;;
69369;SDS011;56530;42.640;23.372;2024-02-26T04:57:22;11.20;;;9.88;;
69369;SDS011;56530;42.640;23.372;2024-02-26T04:59:47;12.38;;;11.02;;
69369;SDS011;56530;42.640;23.372;2024-02-26T05:02:13;12.85;;;11.13;;
69369;SDS011;56530;42.640;23.372;2024-02-26T05:04:38;12.52;;;11.40;;
69369;SDS011;56530;42.640;23.372;2024-02-26T05:07:04;14.55;;;12.25;;
69369;SDS011;56530;42.640;23.372;2024-02-26T05:09:29;15.20;;;13.15;;
69369;SDS011;56530;42.640;23.372;2024-02-26T05:11:55;17.55;;;14.15;;
69369;SDS011;56530;42.640;23.372;2024-02-26T05:14:20;20.25;;;17.88;;
69369;SDS011;56530;42.640;23.372;2024-02-26T05:16:46;19.10;;;17.13;;
69369;SDS011;56530;42.640;23.372;2024-02-26T05:19:12;23.58;;;19.17;;
69369;SDS011;56530;42.640;23.372;2024-02-26T05:21:37;20.17;;;18.10;;
69369;SDS011;56530;42.640;23.372;2024-02-26T05:24:03;21.15;;;18.48;;
69369;SDS011;56530;42.640;23.372;2024-02-26T05:26:28;23.05;;;19.42;;
69369;SDS011;56530;42.640;23.372;2024-02-26T05:28:53;22.63;;;20.23;;
69369;SDS011;56530;42.640;23.372;2024-02-26T05:31:24;27.98;;;19.85;;
69369;SDS011;56530;42.640;23.372;2024-02-26T05:33:49;22.02;;;18.20;;
69369;SDS011;56530;42.640;23.372;2024-02-26T05:36:18;20.70;;;18.50;;
69369;SDS011;56530;42.640;23.372;2024-02-26T05:38:46;21.60;;;19.30;;
69369;SDS011;56530;42.640;23.372;2024-02-26T05:41:11;22.05;;;19.52;;
69369;SDS011;56530;42.640;23.372;2024-02-26T05:43:37;22.70;;;18.83;;
69369;SDS011;56530;42.640;23.372;2024-02-26T05:46:02;19.55;;;17.45;;
69369;SDS011;56530;42.640;23.372;2024-02-26T05:48:28;18.10;;;16.20;;
69369;SDS011;56530;42.640;23.372;2024-02-26T05:50:53;16.88;;;14.77;;
69369;SDS011;56530;42.640;23.372;2024-02-26T05:53:18;18.77;;;15.60;;
69369;SDS011;56530;42.640;23.372;2024-02-26T05:55:44;19.48;;;14.93;;
69369;SDS011;56530;42.640;23.372;2024-02-26T05:58:09;14.73;;;13.38;;
69369;SDS011;56530;42.640;23.372;2024-02-26T06:00:34;16.00;;;13.57;;
69369;SDS011;56530;42.640;23.372;2024-02-26T06:03:00;15.27;;;13.48;;
69369;SDS011;56530;42.640;23.372;2024-02-26T06:05:27;16.48;;;13.15;;
69369;SDS011;56530;42.640;23.372;2024-02-26T06:07:52;16.48;;;12.45;;
69369;SDS011;56530;42.640;23.372;2024-02-26T06:10:17;13.63;;;12.23;;
69369;SDS011;56530;42.640;23.372;2024-02-26T06:12:46;14.20;;;12.60;;
69369;SDS011;56530;42.640;23.372;2024-02-26T06:15:11;18.40;;;11.65;;
69369;SDS011;56530;42.640;23.372;2024-02-26T06:17:37;13.30;;;11.88;;
69369;SDS011;56530;42.640;23.372;2024-02-26T06:20:02;11.48;;;10.30;;
69369;SDS011;56530;42.640;23.372;2024-02-26T06:22:31;12.07;;;10.18;;
69369;SDS011;56530;42.640;23.372;2024-02-26T06:24:57;12.25;;;10.88;;
69369;SDS011;56530;42.640;23.372;2024-02-26T06:27:23;11.88;;;10.57;;
69369;SDS011;56530;42.640;23.372;2024-02-26T06:29:48;15.40;;;11.43;;
69369;SDS011;56530;42.640;23.372;2024-02-26T06:32:14;17.70;;;11.18;;
69369;SDS011;56530;42.640;23.372;2024-02-26T06:34:39;15.95;;;11.90;;
69369;SDS011;56530;42.640;23.372;2024-02-26T06:37:06;14.18;;;12.32;;
69369;SDS011;56530;42.640;23.372;2024-02-26T06:39:32;12.82;;;11.38;;
69369;SDS011;56530;42.640;23.372;2024-02-26T06:41:58;11.88;;;10.73;;
69369;SDS011;56530;42.640;23.372;2024-02-26T06:44:26;13.57;;;10.88;;
69369;SDS011;56530;42.640;23.372;2024-02-26T06:46:56;13.65;;;11.07;;
69369;SDS011;56530;42.640;23.372;2024-02-26T06:49:23;13.23;;;11.77;;
69369;SDS011;56530;42.640;23.372;2024-02-26T06:51:48;15.57;;;12.32;;
69369;SDS011;56530;42.640;23.372;2024-02-26T06:54:13;13.70;;;12.40;;
69369;SDS011;56530;42.640;23.372;2024-02-26T06:56:39;13.95;;;12.43;;
69369;SDS011;56530;42.640;23.372;2024-02-26T06:59:04;14.90;;;11.38;;
69369;SDS011;56530;42.640;23.372;2024-02-26T07:01:30;13.32;;;11.93;;
69369;SDS011;56530;42.640;23.372;2024-02-26T07:03:55;15.07;;;11.65;;
69369;SDS011;56530;42.640;23.372;2024-02-26T07:06:21;12.73;;;10.75;;
69369;SDS011;56530;42.640;23.372;2024-02-26T07:08:46;11.57;;;10.38;;
69369;SDS011;56530;42.640;23.372;2024-02-26T07:11:12;11.82;;;10.40;;
69369;SDS011;56530;42.640;23.372;2024-02-26T07:13:37;16.75;;;11.85;;
69369;SDS011;56530;42.640;23.372;2024-02-26T07:16:03;12.30;;;9.65;;
69369;SDS011;56530;42.640;23.372;2024-02-26T07:18:29;13.50;;;11.00;;
69369;SDS011;56530;42.640;23.372;2024-02-26T07:20:54;12.38;;;10.48;;
69369;SDS011;56530;42.640;23.372;2024-02-26T07:23:36;12.07;;;10.93;;
69369;SDS011;56530;42.640;23.372;2024-02-26T07:26:06;11.57;;;10.38;;
69369;SDS011;56530;42.640;23.372;2024-02-26T07:28:33;12.27;;;11.00;;
69369;SDS011;56530;42.640;23.372;2024-02-26T07:30:58;12.70;;;11.38;;
69369;SDS011;56530;42.640;23.372;2024-02-26T07:33:24;12.13;;;9.82;;
69369;SDS011;56530;42.640;23.372;2024-02-26T07:35:50;11.77;;;10.30;;
69369;SDS011;56530;42.640;23.372;2024-02-26T07:38:17;12.52;;;9.60;;
69369;SDS011;56530;42.640;23.372;2024-02-26T07:40:43;12.00;;;8.68;;
69369;SDS011;56530;42.640;23.372;2024-02-26T07:43:13;10.13;;;9.00;;
69369;SDS011;56530;42.640;23.372;2024-02-26T07:45:39;12.98;;;8.70;;
69369;SDS011;56530;42.640;23.372;2024-02-26T07:48:04;10.27;;;8.15;;
69369;SDS011;56530;42.640;23.372;2024-02-26T07:50:30;12.30;;;8.98;;
69369;SDS011;56530;42.640;23.372;2024-02-26T07:52:56;15.10;;;9.55;;
69369;SDS011;56530;42.640;23.372;2024-02-26T07:55:21;9.38;;;8.48;;
69369;SDS011;56530;42.640;23.372;2024-02-26T07:57:47;14.77;;;8.50;;
69369;SDS011;56530;42.640;23.372;2024-02-26T08:00:13;9.05;;;7.63;;
69369;SDS011;56530;42.640;23.372;2024-02-26T08:02:41;10.18;;;8.90;;
69369;SDS011;56530;42.640;23.372;2024-02-26T08:05:07;12.07;;;8.27;;
69369;SDS011;56530;42.640;23.372;2024-02-26T08:07:32;7.53;;;6.63;;
69369;SDS011;56530;42.640;23.372;2024-02-26T08:09:58;8.30;;;7.07;;
69369;SDS011;56530;42.640;23.372;2024-02-26T08:12:23;7.95;;;7.15;;
69369;SDS011;56530;42.640;23.372;2024-02-26T08:14:49;13.35;;;7.90;;
69369;SDS011;56530;42.640;23.372;2024-02-26T08:17:17;10.70;;;7.90;;
69369;SDS011;56530;42.640;23.372;2024-02-26T08:19:43;7.45;;;6.68;;
69369;SDS011;56530;42.640;23.372;2024-02-26T08:22:08;9.30;;;7.88;;
69369;SDS011;56530;42.640;23.372;2024-02-26T08:24:40;11.38;;;7.53;;
69369;SDS011;56530;42.640;23.372;2024-02-26T08:27:06;13.38;;;7.22;;
69369;SDS011;56530;42.640;23.372;2024-02-26T08:29:32;7.38;;;5.47;;
69369;SDS011;56530;42.640;23.372;2024-02-26T08:32:02;14.48;;;7.03;;
69369;SDS011;56530;42.640;23.372;2024-02-26T08:34:28;8.25;;;6.82;;
69369;SDS011;56530;42.640;23.372;2024-02-26T08:36:54;9.73;;;7.72;;
69369;SDS011;56530;42.640;23.372;2024-02-26T08:39:40;13.95;;;7.43;;
69369;SDS011;56530;42.640;23.372;2024-02-26T08:42:05;8.73;;;7.10;;
69369;SDS011;56530;42.640;23.372;2024-02-26T08:44:31;8.13;;;6.35;;
69369;SDS011;56530;42.640;23.372;2024-02-26T08:46:56;10.60;;;9.30;;
69369;SDS011;56530;42.640;23.372;2024-02-26T08:49:22;9.20;;;7.90;;
69369;SDS011;56530;42.640;23.372;2024-02-26T08:51:48;8.93;;;7.97;;
69369;SDS011;56530;42.640;23.372;2024-02-26T08:54:14;12.90;;;9.02;;
69369;SDS011;56530;42.640;23.372;2024-02-26T08:56:39;9.27;;;7.47;;
69369;SDS011;56530;42.640;23.372;2024-02-26T08:59:05;6.78;;;5.78;;
69369;SDS011;56530;42.640;23.372;2024-02-26T09:01:33;11.55;;;7.45;;
69369;SDS011;56530;42.640;23.372;2024-02-26T09:04:02;9.50;;;7.05;;
69369;SDS011;56530;42.640;23.372;2024-02-26T09:06:29;12.27;;;6.65;;
69369;SDS011;56530;42.640;23.372;2024-02-26T09:08:55;8.02;;;7.00;;
69369;SDS011;56530;42.640;23.372;2024-02-26T09:11:22;10.52;;;7.18;;
69369;SDS011;56530;42.640;23.372;2024-02-26T09:13:49;7.03;;;6.30;;
69369;SDS011;56530;42.640;23.372;2024-02-26T09:16:14;8.63;;;6.75;;
69369;SDS011;56530;42.640;23.372;2024-02-26T09:18:40;7.75;;;6.35;;
69369;SDS011;56530;42.640;23.372;2024-02-26T09:21:05;8.45;;;6.25;;
69369;SDS011;56530;42.640;23.372;2024-02-26T09:23:31;10.43;;;5.97;;
69369;SDS011;56530;42.640;23.372;2024-02-26T09:25:57;8.35;;;6.25;;
69369;SDS011;56530;42.640;23.372;2024-02-26T09:28:29;8.30;;;5.60;;
69369;SDS011;56530;42.640;23.372;2024-02-26T09:31:11;9.02;;;4.90;;
69369;SDS011;56530;42.640;23.372;2024-02-26T09:33:47;6.65;;;6.05;;
69369;SDS011;56530;42.640;23.372;2024-02-26T09:36:12;7.93;;;5.63;;
69369;SDS011;56530;42.640;23.372;2024-02-26T09:38:38;6.38;;;5.75;;
69369;SDS011;56530;42.640;23.372;2024-02-26T09:41:05;7.60;;;6.90;;
69369;SDS011;56530;42.640;23.372;2024-02-26T09:43:36;11.40;;;6.70;;
69369;SDS011;56530;42.640;23.372;2024-02-26T09:46:10;7.50;;;6.57;;
69369;SDS011;56530;42.640;23.372;2024-02-26T09:48:37;6.65;;;5.88;;
69369;SDS011;56530;42.640;23.372;2024-02-26T09:51:02;8.75;;;6.20;;
69369;SDS011;56530;42.640;23.372;2024-02-26T09:53:29;15.10;;;6.68;;
69369;SDS011;56530;42.640;23.372;2024-02-26T09:55:56;12.55;;;6.95;;
69369;SDS011;56530;42.640;23.372;2024-02-26T09:58:25;8.65;;;6.40;;
69369;SDS011;56530;42.640;23.372;2024-02-26T10:00:53;7.75;;;6.57;;
69369;SDS011;56530;42.640;23.372;2024-02-26T10:03:24;6.80;;;6.15;;
69369;SDS011;56530;42.640;23.372;2024-02-26T10:05:51;6.38;;;5.78;;
69369;SDS011;56530;42.640;23.372;2024-02-26T10:08:20;6.30;;;5.70;;
69369;SDS011;56530;42.640;23.372;2024-02-26T10:10:47;5.95;;;5.35;;
69369;SDS011;56530;42.640;23.372;2024-02-26T10:13:13;6.40;;;5.38;;
69369;SDS011;56530;42.640;23.372;2024-02-26T10:15:38;6.45;;;5.88;;
69369;SDS011;56530;42.640;23.372;2024-02-26T10:18:04;8.05;;;6.28;;
69369;SDS011;56530;42.640;23.372;2024-02-26T10:20:31;7.15;;;6.55;;
69369;SDS011;56530;42.640;23.372;2024-02-26T10:22:57;6.85;;;5.90;;
69369;SDS011;56530;42.640;23.372;2024-02-26T10:25:22;7.22;;;5.43;;
69369;SDS011;56530;42.640;23.372;2024-02-26T10:27:48;6.05;;;5.07;;
69369;SDS011;56530;42.640;23.372;2024-02-26T10:30:21;5.43;;;4.85;;
69369;SDS011;56530;42.640;23.372;2024-02-26T10:32:51;10.73;;;6.20;;
69369;SDS011;56530;42.640;23.372;2024-02-26T10:35:19;6.35;;;5.38;;
69369;SDS011;56530;42.640;23.372;2024-02-26T10:37:47;7.90;;;5.18;;
69369;SDS011;56530;42.640;23.372;2024-02-26T10:40:14;5.65;;;4.75;;
69369;SDS011;56530;42.640;23.372;2024-02-26T10:42:40;6.30;;;4.70;;
69369;SDS011;56530;42.640;23.372;2024-02-26T10:45:07;7.00;;;5.38;;
69369;SDS011;56530;42.640;23.372;2024-02-26T10:47:34;5.85;;;5.35;;
69369;SDS011;56530;42.640;23.372;2024-02-26T10:50:04;7.28;;;5.32;;
69369;SDS011;56530;42.640;23.372;2024-02-26T10:52:32;6.03;;;5.35;;
69369;SDS011;56530;42.640;23.372;2024-02-26T10:55:02;6.65;;;5.30;;
69369;SDS011;56530;42.640;23.372;2024-02-26T10:57:39;5.78;;;5.15;;
69369;SDS011;56530;42.640;23.372;2024-02-26T11:00:05;6.78;;;5.22;;
69369;SDS011;56530;42.640;23.372;2024-02-26T11:02:35;6.05;;;4.93;;
69369;SDS011;56530;42.640;23.372;2024-02-26T11:05:04;5.45;;;4.82;;
69369;SDS011;56530;42.640;23.372;2024-02-26T11:07:31;5.07;;;4.60;;
69369;SDS011;56530;42.640;23.372;2024-02-26T11:09:57;7.15;;;5.65;;
69369;SDS011;56530;42.640;23.372;2024-02-26T11:12:24;5.40;;;4.90;;
69369;SDS011;56530;42.640;23.372;2024-02-26T11:14:50;5.28;;;4.75;;
69369;SDS011;56530;42.640;23.372;2024-02-26T11:17:20;5.53;;;4.90;;
69369;SDS011;56530;42.640;23.372;2024-02-26T11:19:48;5.78;;;5.20;;
69369;SDS011;56530;42.640;23.372;2024-02-26T11:22:15;5.50;;;5.00;;
69369;SDS011;56530;42.640;23.372;2024-02-26T11:24:40;7.13;;;5.00;;
69369;SDS011;56530;42.640;23.372;2024-02-26T11:27:07;7.15;;;5.25;;
69369;SDS011;56530;42.640;23.372;2024-02-26T11:29:41;5.78;;;5.20;;
69369;SDS011;56530;42.640;23.372;2024-02-26T11:40:03;6.65;;;4.78;;
69369;SDS011;56530;42.640;23.372;2024-02-26T11:42:31;5.38;;;4.88;;
69369;SDS011;56530;42.640;23.372;2024-02-26T11:44:58;5.20;;;4.55;;
69369;SDS011;56530;42.640;23.372;2024-02-26T12:18:25;5.68;;;4.22;;
69369;SDS011;56530;42.640;23.372;2024-02-26T12:21:00;6.28;;;4.45;;
69369;SDS011;56530;42.640;23.372;2024-02-26T12:23:29;7.15;;;5.03;;
69369;SDS011;56530;42.640;23.372;2024-02-26T12:25:58;7.22;;;4.65;;
69369;SDS011;56530;42.640;23.372;2024-02-26T12:28:27;4.90;;;4.40;;
69369;SDS011;56530;42.640;23.372;2024-02-26T12:48:58;7.53;;;4.05;;
69369;SDS011;56530;42.640;23.372;2024-02-26T12:51:25;7.18;;;4.53;;
69369;SDS011;56530;42.640;23.372;2024-02-26T12:53:51;5.03;;;4.15;;
69369;SDS011;56530;42.640;23.372;2024-02-26T12:56:18;7.43;;;4.07;;
69369;SDS011;56530;42.640;23.372;2024-02-26T12:58:43;6.93;;;4.50;;
69369;SDS011;56530;42.640;23.372;2024-02-26T13:01:13;9.63;;;4.75;;
69369;SDS011;56530;42.640;23.372;2024-02-26T13:03:44;5.87;;;3.83;;
69369;SDS011;56530;42.640;23.372;2024-02-26T13:06:10;5.57;;;4.13;;
69369;SDS011;56530;42.640;23.372;2024-02-26T13:08:35;5.85;;;4.78;;
69369;SDS011;56530;42.640;23.372;2024-02-26T13:11:01;8.88;;;4.93;;
69369;SDS011;56530;42.640;23.372;2024-02-26T13:13:26;4.07;;;3.65;;
69369;SDS011;56530;42.640;23.372;2024-02-26T13:16:01;4.90;;;3.85;;
69369;SDS011;56530;42.640;23.372;2024-02-26T13:18:42;7.55;;;4.40;;
69369;SDS011;56530;42.640;23.372;2024-02-26T13:21:46;5.47;;;4.00;;
69369;SDS011;56530;42.640;23.372;2024-02-26T13:24:20;7.80;;;4.13;;
69369;SDS011;56530;42.640;23.372;2024-02-26T13:26:47;6.43;;;4.35;;
69369;SDS011;56530;42.640;23.372;2024-02-26T13:29:18;5.85;;;4.35;;
69369;SDS011;56530;42.640;23.372;2024-02-26T13:34:41;6.32;;;4.32;;
69369;SDS011;56530;42.640;23.372;2024-02-26T13:37:07;6.18;;;3.33;;
69369;SDS011;56530;42.640;23.372;2024-02-26T13:39:36;6.57;;;4.00;;
69369;SDS011;56530;42.640;23.372;2024-02-26T13:42:03;8.82;;;3.80;;
69369;SDS011;56530;42.640;23.372;2024-02-26T13:44:28;9.65;;;4.60;;
69369;SDS011;56530;42.640;23.372;2024-02-26T13:46:54;4.45;;;3.95;;
69369;SDS011;56530;42.640;23.372;2024-02-26T13:49:22;4.00;;;3.65;;
69369;SDS011;56530;42.640;23.372;2024-02-26T13:51:48;4.60;;;4.00;;
69369;SDS011;56530;42.640;23.372;2024-02-26T13:54:13;5.85;;;3.53;;
69369;SDS011;56530;42.640;23.372;2024-02-26T13:56:40;6.38;;;4.00;;
69369;SDS011;56530;42.640;23.372;2024-02-26T13:59:10;9.43;;;4.05;;
69369;SDS011;56530;42.640;23.372;2024-02-26T14:01:56;7.78;;;3.70;;
69369;SDS011;56530;42.640;23.372;2024-02-26T14:04:24;6.50;;;4.28;;
69369;SDS011;56530;42.640;23.372;2024-02-26T14:06:50;6.32;;;4.15;;
69369;SDS011;56530;42.640;23.372;2024-02-26T14:09:18;6.63;;;3.50;;
69369;SDS011;56530;42.640;23.372;2024-02-26T14:11:46;4.38;;;3.92;;
69369;SDS011;56530;42.640;23.372;2024-02-26T14:14:12;7.05;;;4.03;;
69369;SDS011;56530;42.640;23.372;2024-02-26T14:19:52;4.97;;;3.88;;
69369;SDS011;56530;42.640;23.372;2024-02-26T14:22:23;5.00;;;3.97;;
69369;SDS011;56530;42.640;23.372;2024-02-26T14:24:50;4.88;;;3.83;;
69369;SDS011;56530;42.640;23.372;2024-02-26T14:27:29;7.60;;;4.20;;
69369;SDS011;56530;42.640;23.372;2024-02-26T14:30:19;6.35;;;3.97;;
69369;SDS011;56530;42.640;23.372;2024-02-26T14:33:10;3.30;;;3.00;;
69369;SDS011;56530;42.640;23.372;2024-02-26T14:35:38;6.03;;;3.70;;
69369;SDS011;56530;42.640;23.372;2024-02-26T14:38:03;4.35;;;3.88;;
69369;SDS011;56530;42.640;23.372;2024-02-26T14:40:29;7.80;;;3.67;;
69369;SDS011;56530;42.640;23.372;2024-02-26T14:42:55;5.68;;;3.85;;
69369;SDS011;56530;42.640;23.372;2024-02-26T14:45:22;4.28;;;3.22;;
69369;SDS011;56530;42.640;23.372;2024-02-26T14:47:52;3.83;;;3.42;;
69369;SDS011;56530;42.640;23.372;2024-02-26T14:50:44;6.45;;;3.88;;
69369;SDS011;56530;42.640;23.372;2024-02-26T14:53:09;7.78;;;4.63;;
69369;SDS011;56530;42.640;23.372;2024-02-26T14:55:35;6.40;;;4.00;;
69369;SDS011;56530;42.640;23.372;2024-02-26T14:58:01;5.43;;;4.43;;
69369;SDS011;56530;42.640;23.372;2024-02-26T15:00:27;5.50;;;4.38;;
69369;SDS011;56530;42.640;23.372;2024-02-26T15:03:05;6.50;;;4.57;;
69369;SDS011;56530;42.640;23.372;2024-02-26T15:05:42;4.88;;;4.03;;
69369;SDS011;56530;42.640;23.372;2024-02-26T15:11:08;11.85;;;4.90;;
69369;SDS011;56530;42.640;23.372;2024-02-26T15:13:37;9.20;;;4.72;;
69369;SDS011;56530;42.640;23.372;2024-02-26T15:16:23;8.57;;;4.82;;
69369;SDS011;56530;42.640;23.372;2024-02-26T15:18:51;8.50;;;4.72;;
69369;SDS011;56530;42.640;23.372;2024-02-26T15:21:16;5.40;;;3.63;;
69369;SDS011;56530;42.640;23.372;2024-02-26T15:23:45;8.32;;;3.90;;
69369;SDS011;56530;42.640;23.372;2024-02-26T15:26:17;4.22;;;3.67;;